createdAt,value
2018-05-26T00:01:09.093Z,6.60
2018-05-26T00:03:37.325Z,7.57
2018-05-26T00:06:05.571Z,6.70
2018-05-26T00:08:33.816Z,6.53
2018-05-26T00:11:02.825Z,8.97
2018-05-26T00:13:31.066Z,7.47
2018-05-26T00:15:59.298Z,6.10
2018-05-26T00:18:27.550Z,8.60
2018-05-26T00:20:55.790Z,6.57
2018-05-26T00:23:24.047Z,7.53
2018-05-26T00:25:52.286Z,6.10
2018-05-26T00:28:20.518Z,6.73
2018-05-26T00:30:48.762Z,6.77
2018-05-26T00:33:17.007Z,6.43
2018-05-26T00:35:45.289Z,6.97
2018-05-26T00:38:13.518Z,8.67
2018-05-26T00:40:41.754Z,7.17
2018-05-26T00:43:10.006Z,7.67
2018-05-26T00:45:38.258Z,7.53
2018-05-26T00:48:07.253Z,8.03
2018-05-26T00:50:36.272Z,6.97
2018-05-26T00:53:04.817Z,7.40
2018-05-26T00:55:33.045Z,7.23
2018-05-26T00:58:01.298Z,7.77
2018-05-26T01:00:29.530Z,7.07
2018-05-26T01:02:58.551Z,7.40
2018-05-26T01:05:27.550Z,7.10
2018-05-26T01:07:56.642Z,8.43
2018-05-26T01:10:25.660Z,7.50
2018-05-26T01:12:53.902Z,9.73
2018-05-26T01:15:22.893Z,7.43
2018-05-26T01:17:52.301Z,7.97
2018-05-26T01:20:22.207Z,7.63
2018-05-26T01:22:51.223Z,9.97
2018-05-26T01:25:19.462Z,9.83
2018-05-26T01:27:47.691Z,9.00
2018-05-26T01:30:15.943Z,7.67
2018-05-26T01:32:44.958Z,7.50
2018-05-26T01:35:13.190Z,8.40
2018-05-26T01:37:42.190Z,8.40
2018-05-26T01:40:11.207Z,8.93
2018-05-26T01:42:39.438Z,8.30
2018-05-26T01:45:07.678Z,9.10
2018-05-26T01:47:35.918Z,8.80
2018-05-26T01:50:04.936Z,11.30
2018-05-26T01:52:33.174Z,10.00
2018-05-26T01:55:02.173Z,7.23
2018-05-26T01:57:31.185Z,9.70
2018-05-26T01:59:59.435Z,9.00
2018-05-26T02:02:28.462Z,9.53
2018-05-26T02:04:56.921Z,9.20
2018-05-26T02:07:25.922Z,8.43
2018-05-26T02:09:54.922Z,8.20
2018-05-26T02:12:23.394Z,7.43
2018-05-26T02:14:52.412Z,9.10
2018-05-26T02:17:20.643Z,10.00
2018-05-26T02:19:48.890Z,12.40
2018-05-26T02:22:17.139Z,10.40
2018-05-26T02:24:45.479Z,10.77
2018-05-26T02:27:14.477Z,10.97
2018-05-26T02:29:43.482Z,13.60
2018-05-26T02:32:11.758Z,11.30
2018-05-26T02:34:40.024Z,13.50
2018-05-26T02:37:09.026Z,15.23
2018-05-26T02:39:37.270Z,13.67
2018-05-26T02:42:05.526Z,13.10
2018-05-26T02:44:33.768Z,13.00
2018-05-26T02:47:02.030Z,12.60
2018-05-26T02:49:30.275Z,13.57
2018-05-26T02:51:58.528Z,12.97
2018-05-26T02:54:26.762Z,13.63
2018-05-26T02:56:55.325Z,13.47
2018-05-26T02:59:24.345Z,13.80
2018-05-26T03:01:52.586Z,14.20
2018-05-26T03:04:26.271Z,12.47
2018-05-26T03:07:00.133Z,14.53
2018-05-26T03:09:33.800Z,16.30
2018-05-26T03:12:08.436Z,17.37
2018-05-26T03:14:43.029Z,15.20
2018-05-26T03:17:11.295Z,15.57
2018-05-26T03:19:39.541Z,12.87
2018-05-26T03:22:08.204Z,16.27
2018-05-26T03:24:37.205Z,13.23
2018-05-26T03:27:05.444Z,15.70
2018-05-26T03:29:33.693Z,12.67
2018-05-26T03:32:01.942Z,11.70
2018-05-26T03:34:30.198Z,12.63
2018-05-26T03:36:58.442Z,13.07
2018-05-26T03:39:26.677Z,11.77
2018-05-26T03:41:54.922Z,12.40
2018-05-26T03:44:23.926Z,11.43
2018-05-26T03:46:52.179Z,12.67
2018-05-26T03:49:21.186Z,12.40
2018-05-26T03:51:49.430Z,11.70
2018-05-26T03:54:17.688Z,17.03
2018-05-26T03:57:03.755Z,18.20
2018-05-26T03:59:49.855Z,17.27
2018-05-26T04:02:18.297Z,17.83
2018-05-26T04:04:47.311Z,17.33
2018-05-26T04:07:15.556Z,17.00
2018-05-26T04:09:43.957Z,20.23
2018-05-26T04:12:12.207Z,15.70
2018-05-26T04:14:40.442Z,16.47
2018-05-26T04:17:08.698Z,16.93
2018-05-26T04:19:36.946Z,18.73
2018-05-26T04:22:06.062Z,17.10
2018-05-26T04:24:34.314Z,17.33
2018-05-26T04:27:03.344Z,18.10
2018-05-26T04:29:31.596Z,15.60
2018-05-26T04:32:00.588Z,16.77
2018-05-26T04:34:29.606Z,19.33
2018-05-26T04:36:57.859Z,16.87
2018-05-26T04:39:26.879Z,16.03
2018-05-26T04:41:55.130Z,14.93
2018-05-26T04:44:23.427Z,17.97
2018-05-26T04:46:51.662Z,16.90
2018-05-26T04:49:20.698Z,15.90
2018-05-26T04:51:48.937Z,16.27
2018-05-26T04:54:17.947Z,18.03
2018-05-26T04:56:46.191Z,17.63
2018-05-26T04:59:14.433Z,18.40
2018-05-26T05:01:42.686Z,18.27
2018-05-26T05:04:10.933Z,16.37
2018-05-26T05:06:39.942Z,17.67
2018-05-26T05:09:08.200Z,19.77
2018-05-26T05:11:37.231Z,17.63
2018-05-26T05:14:05.478Z,16.47
2018-05-26T05:16:34.787Z,16.63
2018-05-26T05:19:03.026Z,19.67
2018-05-26T05:21:32.046Z,14.17
2018-05-26T05:24:01.254Z,16.47
2018-05-26T05:26:29.498Z,18.77
2018-05-26T05:28:57.733Z,21.37
2018-05-26T05:31:25.994Z,20.33
2018-05-26T05:33:54.454Z,18.07
2018-05-26T05:36:22.704Z,16.30
2018-05-26T05:38:50.937Z,19.03
2018-05-26T05:41:19.195Z,18.23
2018-05-26T05:43:47.451Z,13.03
2018-05-26T05:46:16.463Z,15.53
2018-05-26T05:48:44.722Z,13.80
2018-05-26T05:51:13.743Z,13.83
2018-05-26T05:53:41.982Z,13.20
2018-05-26T05:56:11.020Z,14.20
2018-05-26T05:58:39.246Z,16.03
2018-05-26T06:01:07.479Z,14.57
2018-05-26T06:03:36.005Z,13.00
2018-05-26T06:06:04.233Z,14.80
2018-05-26T06:08:32.470Z,11.50
2018-05-26T06:11:01.046Z,12.70
2018-05-26T06:13:30.055Z,12.73
2018-05-26T06:15:58.297Z,13.83
2018-05-26T06:18:26.544Z,13.27
2018-05-26T06:20:54.790Z,12.13
2018-05-26T06:23:23.059Z,13.37
2018-05-26T06:25:51.302Z,11.87
2018-05-26T06:28:19.553Z,14.13
2018-05-26T06:30:47.801Z,12.13
2018-05-26T06:33:16.039Z,13.00
2018-05-26T06:35:45.045Z,12.50
2018-05-26T06:38:13.304Z,10.60
2018-05-26T06:40:41.598Z,13.47
2018-05-26T06:43:10.619Z,13.27
2018-05-26T06:45:39.869Z,14.73
2018-05-26T06:48:08.113Z,12.73
2018-05-26T06:50:36.358Z,16.77
2018-05-26T06:53:05.150Z,14.73
2018-05-26T06:55:33.398Z,14.87
2018-05-26T06:58:02.423Z,14.23
2018-05-26T07:00:30.679Z,14.83
2018-05-26T07:02:58.921Z,14.20
2018-05-26T07:05:27.334Z,13.07
2018-05-26T07:07:55.573Z,14.13
2018-05-26T07:10:23.809Z,13.03
2018-05-26T07:12:52.071Z,13.80
2018-05-26T07:15:20.326Z,12.77
2018-05-26T07:17:49.634Z,14.33
2018-05-26T07:20:17.877Z,12.67
2018-05-26T07:22:46.117Z,16.97
2018-05-26T07:25:14.372Z,13.00
2018-05-26T07:27:42.619Z,11.90
2018-05-26T07:30:11.632Z,13.50
2018-05-26T07:32:40.114Z,12.27
2018-05-26T07:35:08.425Z,12.17
2018-05-26T07:37:36.766Z,13.17
2018-05-26T07:40:05.025Z,13.53
2018-05-26T07:42:34.052Z,14.60
2018-05-26T07:45:02.346Z,12.50
2018-05-26T07:47:30.682Z,13.00
2018-05-26T07:49:59.705Z,13.20
2018-05-26T07:52:27.956Z,12.47
2018-05-26T07:54:56.974Z,15.67
2018-05-26T07:57:25.226Z,15.07
2018-05-26T07:59:53.475Z,13.53
2018-05-26T08:02:21.729Z,16.00
2018-05-26T08:04:49.987Z,15.80
2018-05-26T08:07:18.252Z,12.73
2018-05-26T08:09:46.495Z,13.30
2018-05-26T08:12:15.515Z,11.37
2018-05-26T08:14:43.773Z,12.77
2018-05-26T08:17:12.089Z,20.77
2018-05-26T08:19:40.278Z,14.37
2018-05-26T08:22:08.906Z,15.20
2018-05-26T08:24:37.926Z,12.27
2018-05-26T08:27:06.171Z,12.63
2018-05-26T08:29:35.194Z,10.57
2018-05-26T08:32:03.441Z,12.37
2018-05-26T08:34:32.441Z,11.43
2018-05-26T08:37:01.479Z,10.73
2018-05-26T08:39:29.717Z,13.07
2018-05-26T08:41:57.970Z,16.10
2018-05-26T08:44:26.226Z,12.07
2018-05-26T08:46:54.465Z,11.33
2018-05-26T08:49:22.710Z,11.20
2018-05-26T08:51:51.197Z,11.80
2018-05-26T08:54:19.439Z,11.77
2018-05-26T08:56:47.678Z,9.83
2018-05-26T08:59:15.931Z,10.03
2018-05-26T09:01:44.170Z,10.67
2018-05-26T09:04:12.422Z,10.07
2018-05-26T09:06:40.654Z,10.17
2018-05-26T09:09:08.910Z,13.00
2018-05-26T09:11:37.918Z,11.30
2018-05-26T09:14:06.165Z,10.83
2018-05-26T09:16:34.419Z,10.03
2018-05-26T09:19:02.674Z,11.13
2018-05-26T09:21:30.918Z,12.17
2018-05-26T09:23:59.174Z,12.47
2018-05-26T09:26:28.185Z,11.27
2018-05-26T09:28:57.214Z,11.27
2018-05-26T09:31:25.511Z,13.93
2018-05-26T09:33:53.707Z,10.10
2018-05-26T09:36:21.942Z,10.33
2018-05-26T09:38:50.207Z,13.07
2018-05-26T09:41:18.450Z,11.33
2018-05-26T09:43:47.455Z,9.10
2018-05-26T09:46:15.711Z,11.77
2018-05-26T09:48:44.730Z,10.00
2018-05-26T09:51:12.974Z,8.60
2018-05-26T09:53:41.227Z,9.40
2018-05-26T09:56:09.468Z,10.47
2018-05-26T09:58:37.923Z,10.00
2018-05-26T10:01:06.938Z,14.17
2018-05-26T10:03:35.174Z,12.03
2018-05-26T10:06:03.424Z,9.30
2018-05-26T10:08:31.654Z,9.77
2018-05-26T10:10:59.907Z,10.17
2018-05-26T10:13:28.952Z,10.63
2018-05-26T10:15:57.914Z,10.73
2018-05-26T10:18:26.167Z,9.57
2018-05-26T10:20:55.282Z,10.37
2018-05-26T10:23:23.539Z,12.60
2018-05-26T10:25:52.566Z,12.97
2018-05-26T10:28:20.806Z,11.38
2018-05-26T10:30:49.817Z,12.03
2018-05-26T10:33:18.073Z,11.75
2018-05-26T10:35:46.338Z,10.40
2018-05-26T10:38:14.642Z,11.93
2018-05-26T10:40:42.822Z,10.88
2018-05-26T10:43:11.302Z,11.10
2018-05-26T10:45:40.415Z,10.27
2018-05-26T10:48:08.656Z,9.60
2018-05-26T10:50:36.903Z,10.20
2018-05-26T10:53:05.959Z,11.55
2018-05-26T10:55:34.203Z,12.85
2018-05-26T10:58:03.230Z,10.50
2018-05-26T11:00:31.474Z,9.25
2018-05-26T11:03:00.483Z,11.30
2018-05-26T11:05:28.733Z,11.10
2018-05-26T11:07:57.772Z,11.12
2018-05-26T11:10:26.023Z,11.93
2018-05-26T11:12:54.259Z,8.07
2018-05-26T11:15:23.257Z,8.57
2018-05-26T11:17:51.821Z,9.35
2018-05-26T11:20:20.066Z,8.70
2018-05-26T11:22:48.253Z,8.55
2018-05-26T11:25:16.706Z,7.82
2018-05-26T11:27:45.710Z,11.50
2018-05-26T11:30:13.956Z,11.82
2018-05-26T11:32:43.270Z,8.55
2018-05-26T11:35:12.270Z,6.68
2018-05-26T11:37:40.517Z,7.60
2018-05-26T11:40:08.764Z,8.25
2018-05-26T11:42:37.011Z,10.23
2018-05-26T11:45:05.253Z,8.13
2018-05-26T11:47:34.363Z,8.82
2018-05-26T11:50:03.366Z,7.72
2018-05-26T11:52:31.609Z,7.18
2018-05-26T11:54:59.863Z,8.57
2018-05-26T11:57:28.115Z,8.02
2018-05-26T11:59:56.358Z,8.40
2018-05-26T12:02:24.607Z,12.37
2018-05-26T12:04:52.937Z,10.68
2018-05-26T12:07:21.170Z,11.47
2018-05-26T12:09:50.183Z,6.78
2018-05-26T12:12:18.435Z,5.87
2018-05-26T12:14:46.677Z,6.00
2018-05-26T12:17:14.921Z,5.22
2018-05-26T12:19:43.206Z,6.82
2018-05-26T12:22:11.446Z,5.25
2018-05-26T12:24:40.455Z,6.05
2018-05-26T12:27:08.689Z,8.43
2018-05-26T12:29:36.950Z,5.32
2018-05-26T12:32:05.177Z,5.22
2018-05-26T12:34:33.417Z,4.70
2018-05-26T12:37:01.664Z,4.47
2018-05-26T12:39:29.907Z,4.50
2018-05-26T12:41:58.158Z,4.47
2018-05-26T12:44:27.166Z,5.25
2018-05-26T12:46:56.195Z,4.45
2018-05-26T12:49:24.430Z,4.22
2018-05-26T12:51:53.439Z,3.80
2018-05-26T12:54:21.918Z,3.70
2018-05-26T12:56:50.161Z,6.50
2018-05-26T12:59:18.397Z,5.07
2018-05-26T13:01:46.650Z,4.43
2018-05-26T13:04:14.895Z,3.53
2018-05-26T13:06:43.125Z,3.67
2018-05-26T13:09:11.378Z,3.97
2018-05-26T13:11:39.851Z,2.95
2018-05-26T13:14:08.101Z,3.40
2018-05-26T13:16:36.338Z,3.87
2018-05-26T13:19:04.593Z,3.30
2018-05-26T13:21:32.827Z,4.10
2018-05-26T13:24:01.071Z,3.37
2018-05-26T13:26:29.317Z,2.95
2018-05-26T13:28:57.594Z,2.97
2018-05-26T13:31:25.821Z,3.05
2018-05-26T13:33:55.585Z,2.70
2018-05-26T13:36:23.827Z,2.58
2018-05-26T13:38:52.838Z,2.93
2018-05-26T13:41:21.077Z,2.42
2018-05-26T13:43:49.326Z,2.60
2018-05-26T13:46:17.562Z,3.60
2018-05-26T13:48:45.810Z,4.17
2018-05-26T13:51:14.068Z,4.50
2018-05-26T13:53:42.295Z,2.40
2018-05-26T13:56:10.531Z,2.83
2018-05-26T13:58:38.794Z,2.65
2018-05-26T14:01:07.036Z,2.67
2018-05-26T14:03:35.281Z,2.78
2018-05-26T14:06:03.526Z,2.47
2018-05-26T14:08:31.773Z,2.55
2018-05-26T14:11:00.061Z,4.23
2018-05-26T14:13:29.414Z,2.30
2018-05-26T14:15:57.672Z,2.58
2018-05-26T14:18:26.682Z,4.70
2018-05-26T14:20:54.931Z,4.12
2018-05-26T14:23:23.434Z,3.40
2018-05-26T14:25:52.447Z,3.20
2018-05-26T14:28:20.691Z,2.30
2018-05-26T14:30:49.703Z,2.22
2018-05-26T14:33:19.003Z,2.20
2018-05-26T14:35:47.242Z,2.00
2018-05-26T14:38:15.483Z,3.47
2018-05-26T14:40:43.726Z,3.03
2018-05-26T14:43:12.135Z,2.35
2018-05-26T14:45:40.375Z,2.50
2018-05-26T14:48:09.388Z,3.95
2018-05-26T14:50:37.638Z,2.17
2018-05-26T14:53:07.346Z,2.50
2018-05-26T14:55:36.355Z,2.30
2018-05-26T14:58:04.839Z,3.95
2018-05-26T15:00:33.074Z,3.25
2018-05-26T15:03:01.317Z,6.60
2018-05-26T15:05:29.571Z,6.80
2018-05-26T15:07:57.829Z,4.10
2018-05-26T15:10:26.873Z,3.67
2018-05-26T15:12:55.492Z,3.00
2018-05-26T15:15:24.414Z,2.10
2018-05-26T15:17:52.663Z,3.87
2018-05-26T15:20:20.912Z,3.50
2018-05-26T15:22:49.161Z,2.95
2018-05-26T15:25:17.385Z,2.97
2018-05-26T15:27:45.623Z,2.53
2018-05-26T15:30:13.864Z,3.60
2018-05-26T15:32:42.115Z,2.60
2018-05-26T15:35:11.135Z,2.97
2018-05-26T15:37:39.424Z,2.67
2018-05-26T15:40:08.396Z,3.27
2018-05-26T15:42:36.634Z,2.80
2018-05-26T15:45:04.878Z,6.60
2018-05-26T15:47:33.118Z,4.50
2018-05-26T15:50:02.139Z,2.60
2018-05-26T15:52:30.383Z,3.70
2018-05-26T15:54:59.387Z,2.70
2018-05-26T15:57:28.402Z,2.73
2018-05-26T15:59:56.664Z,3.67
2018-05-26T16:02:25.647Z,4.53
2018-05-26T16:04:53.902Z,4.93
2018-05-26T16:07:22.913Z,4.60
2018-05-26T16:09:51.913Z,3.17
2018-05-26T16:12:20.162Z,4.17
2018-05-26T16:14:48.406Z,2.97
2018-05-26T16:17:16.653Z,3.23
2018-05-26T16:19:45.242Z,2.90
2018-05-26T16:22:13.476Z,2.77
2018-05-26T16:24:41.702Z,3.20
2018-05-26T16:27:09.942Z,2.80
2018-05-26T16:29:38.960Z,3.07
2018-05-26T16:32:07.206Z,3.37
2018-05-26T16:34:36.207Z,3.50
2018-05-26T16:37:05.201Z,3.00
2018-05-26T16:39:33.459Z,4.17
2018-05-26T16:42:02.462Z,3.90
2018-05-26T16:44:31.479Z,2.90
2018-05-26T16:46:59.725Z,4.43
2018-05-26T16:49:28.737Z,2.93
2018-05-26T16:51:57.003Z,3.33
2018-05-26T16:54:25.243Z,4.73
2018-05-26T16:56:53.494Z,3.57
2018-05-26T16:59:21.738Z,3.03
2018-05-26T17:01:49.981Z,3.13
2018-05-26T17:04:18.232Z,6.03
2018-05-26T17:06:46.458Z,2.70
2018-05-26T17:09:14.938Z,3.17
2018-05-26T17:11:43.946Z,3.10
2018-05-26T17:14:12.185Z,3.23
2018-05-26T17:16:41.510Z,3.40
2018-05-26T17:19:10.609Z,3.30
2018-05-26T17:21:38.839Z,3.30
2018-05-26T17:24:07.086Z,3.80
2018-05-26T17:26:35.330Z,10.77
2018-05-26T17:29:04.329Z,9.20
2018-05-26T17:31:32.578Z,8.00
2018-05-26T17:34:01.602Z,5.60
2018-05-26T17:36:29.888Z,5.50
2018-05-26T17:38:58.086Z,23.27
2018-05-26T17:41:26.336Z,12.90
2018-05-26T17:43:54.618Z,5.80
2018-05-26T17:46:22.846Z,5.33
2018-05-26T17:48:51.086Z,4.07
2018-05-26T17:51:19.334Z,12.70
2018-05-26T17:53:47.598Z,12.80
2018-05-26T17:56:16.643Z,7.57
2018-05-26T17:58:44.853Z,10.73
2018-05-26T18:01:13.877Z,7.70
2018-05-26T18:03:42.129Z,14.10
2018-05-26T18:06:11.147Z,13.57
2018-05-26T18:08:39.382Z,23.73
2018-05-26T18:11:08.398Z,10.77
2018-05-26T18:13:36.655Z,8.43
2018-05-26T18:16:04.893Z,17.63
2018-05-26T18:18:33.327Z,44.43
2018-05-26T18:21:01.582Z,27.53
2018-05-26T18:23:29.823Z,17.27
2018-05-26T18:25:58.089Z,7.77
2018-05-26T18:28:26.323Z,18.70
2018-05-26T18:30:55.527Z,39.20
2018-05-26T18:33:23.774Z,32.07
2018-05-26T18:35:53.525Z,12.57
2018-05-26T18:38:21.774Z,8.83
2018-05-26T18:40:50.790Z,15.00
2018-05-26T18:43:19.043Z,27.53
2018-05-26T18:45:48.055Z,16.73
2018-05-26T18:48:16.311Z,13.80
2018-05-26T18:50:45.527Z,21.43
2018-05-26T18:53:13.770Z,42.80
2018-05-26T18:55:42.010Z,18.00
2018-05-26T18:58:10.259Z,8.17
2018-05-26T19:00:38.839Z,6.73
2018-05-26T19:03:07.770Z,6.63
2018-05-26T19:05:36.002Z,5.73
2018-05-26T19:08:04.254Z,6.03
2018-05-26T19:10:32.491Z,7.60
2018-05-26T19:13:00.738Z,8.60
2018-05-26T19:15:29.000Z,6.07
2018-05-26T19:17:58.098Z,6.53
2018-05-26T19:20:27.105Z,5.90
2018-05-26T19:22:55.338Z,5.50
2018-05-26T19:25:23.578Z,5.93
2018-05-26T19:27:51.827Z,5.87
2018-05-26T19:30:20.062Z,5.93
2018-05-26T19:32:48.314Z,21.93
2018-05-26T19:35:16.558Z,21.50
2018-05-26T19:37:44.808Z,26.37
2018-05-26T19:40:13.823Z,11.13
2018-05-26T19:42:42.054Z,16.57
2018-05-26T19:45:10.315Z,20.33
2018-05-26T19:47:38.592Z,13.53
2018-05-26T19:50:07.126Z,8.43
2018-05-26T19:52:35.358Z,6.73
2018-05-26T19:55:03.591Z,6.57
2018-05-26T19:57:31.849Z,33.27
2018-05-26T20:00:00.099Z,15.87
2018-05-26T20:02:28.352Z,8.17
2018-05-26T20:04:56.586Z,10.07
2018-05-26T20:07:24.822Z,20.73
2018-05-26T20:09:53.985Z,9.97
2018-05-26T20:12:22.226Z,15.10
2018-05-26T20:14:51.259Z,7.43
2018-05-26T20:17:19.555Z,5.73
2018-05-26T20:19:47.791Z,6.83
2018-05-26T20:22:16.047Z,5.83
2018-05-26T20:24:44.285Z,6.03
2018-05-26T20:27:12.527Z,6.33
2018-05-26T20:29:40.890Z,6.57
2018-05-26T20:32:09.134Z,20.63
2018-05-26T20:34:38.456Z,40.87
2018-05-26T20:37:06.694Z,11.37
2018-05-26T20:39:34.927Z,9.77
2018-05-26T20:42:03.174Z,8.10
2018-05-26T20:44:32.173Z,7.50
2018-05-26T20:47:00.426Z,6.97
2018-05-26T20:49:29.431Z,7.33
2018-05-26T20:51:58.443Z,7.17
2018-05-26T20:54:26.678Z,6.93
2018-05-26T20:56:54.924Z,7.53
2018-05-26T20:59:23.169Z,6.90
2018-05-26T21:01:51.418Z,7.63
2018-05-26T21:04:20.428Z,7.43
2018-05-26T21:06:49.484Z,7.63
2018-05-26T21:09:17.677Z,7.13
2018-05-26T21:11:46.678Z,7.10
2018-05-26T21:14:15.690Z,8.47
2018-05-26T21:16:43.930Z,8.43
2018-05-26T21:19:12.938Z,8.13
2018-05-26T21:21:41.955Z,6.90
2018-05-26T21:24:10.193Z,10.53
2018-05-26T21:26:38.446Z,21.97
2018-05-26T21:29:06.700Z,8.83
2018-05-26T21:31:34.935Z,6.70
2018-05-26T21:34:03.942Z,7.03
2018-05-26T21:36:32.194Z,7.50
2018-05-26T21:39:01.243Z,33.13
2018-05-26T21:41:29.484Z,37.93
2018-05-26T21:43:57.734Z,9.47
2018-05-26T21:46:25.986Z,8.77
2018-05-26T21:48:54.218Z,8.70
2018-05-26T21:51:22.453Z,8.87
2018-05-26T21:53:50.853Z,8.63
2018-05-26T21:56:19.949Z,8.63
2018-05-26T21:58:48.956Z,7.57
2018-05-26T22:01:17.429Z,13.53
2018-05-26T22:03:45.678Z,10.60
2018-05-26T22:06:13.910Z,9.43
2018-05-26T22:08:42.163Z,11.07
2018-05-26T22:11:10.419Z,12.20
2018-05-26T22:13:39.439Z,9.83
2018-05-26T22:16:07.683Z,10.20
2018-05-26T22:18:35.935Z,11.47
2018-05-26T22:21:04.176Z,13.53
2018-05-26T22:23:32.429Z,10.93
2018-05-26T22:26:01.440Z,11.27
2018-05-26T22:28:29.678Z,12.67
2018-05-26T22:30:58.203Z,13.23
2018-05-26T22:33:26.446Z,41.87
2018-05-26T22:35:55.450Z,13.20
2018-05-26T22:38:23.714Z,12.97
2018-05-26T22:40:52.717Z,13.90
2018-05-26T22:43:20.963Z,27.73
2018-05-26T22:45:49.219Z,22.60
2018-05-26T22:48:17.463Z,14.37
2018-05-26T22:50:45.710Z,13.47
2018-05-26T22:53:14.731Z,11.17
2018-05-26T22:55:42.974Z,11.30
2018-05-26T22:58:11.977Z,11.97
2018-05-26T23:00:40.999Z,14.23
2018-05-26T23:03:09.234Z,11.40
2018-05-26T23:05:38.262Z,12.70
2018-05-26T23:08:06.524Z,12.50
2018-05-26T23:10:35.823Z,13.50
2018-05-26T23:13:04.070Z,12.87
2018-05-26T23:15:32.310Z,11.47
2018-05-26T23:18:00.570Z,13.17
2018-05-26T23:20:28.811Z,12.57
2018-05-26T23:22:57.817Z,13.07
2018-05-26T23:25:26.189Z,11.53
2018-05-26T23:27:55.213Z,12.27
2018-05-26T23:30:23.530Z,11.57
2018-05-26T23:32:51.785Z,13.23
2018-05-26T23:35:20.034Z,12.80
2018-05-26T23:37:48.300Z,12.00
2018-05-26T23:40:16.538Z,11.10
2018-05-26T23:42:44.778Z,12.07
2018-05-26T23:45:13.036Z,12.23
2018-05-26T23:47:41.273Z,13.40
2018-05-26T23:50:10.293Z,11.43
2018-05-26T23:52:38.553Z,12.27
2018-05-26T23:55:07.576Z,13.30
2018-05-26T23:57:35.809Z,12.20
